Time;durP1;ratioP1;P1;durP2;ratioP2;P2;SDS_P1;SDS_P2;PMS_P1;PMS_P2;Temp;Humidity;BMP_temperature;BMP_pressure;BME280_temperature;BME280_humidity;BME280_pressure;Samples;Min_cycle;Max_cycle;Signal;HPM_P1;HPM_P2
2023/10/26 00:02:52;;;;;;;47.43;25.77;;;;;;;;;;6303929;28;20052;-70
2023/10/26 00:05:54;;;;;;;46.15;24.73;;;;;;;;;;6303689;28;20060;-70
2023/10/26 00:08:55;;;;;;;42.38;24.73;;;;;;;;;;6302783;28;20097;-71
2023/10/26 00:11:57;;;;;;;45.60;25.38;;;;;;;;;;6303762;28;20052;-69
2023/10/26 00:15:01;;;;;;;45.95;24.25;;;;;;;;;;6303554;28;20060;-71
2023/10/26 00:18:02;;;;;;;41.20;24.27;;;;;;;;;;6306090;28;20064;-70
2023/10/26 00:21:04;;;;;;;45.03;24.10;;;;;;;;;;6304553;28;20063;-70
2023/10/26 00:24:07;;;;;;;44.45;24.25;;;;;;;;;;6303931;28;20280;-70
2023/10/26 00:27:08;;;;;;;42.92;24.25;;;;;;;;;;6303583;28;20051;-70
2023/10/26 00:30:13;;;;;;;41.92;23.65;;;;;;;;;;6303563;28;20059;-70
2023/10/26 00:33:14;;;;;;;45.90;25.48;;;;;;;;;;6278566;28;20053;-70
2023/10/26 00:36:16;;;;;;;43.38;23.70;;;;;;;;;;6294810;28;20061;-69
2023/10/26 00:39:17;;;;;;;40.63;24.27;;;;;;;;;;6305106;28;20336;-70
2023/10/26 00:42:19;;;;;;;43.90;24.23;;;;;;;;;;6284625;28;20057;-70
2023/10/26 00:45:22;;;;;;;42.88;23.60;;;;;;;;;;6277827;28;20104;-70
2023/10/26 00:48:24;;;;;;;40.38;23.08;;;;;;;;;;6278838;28;20103;-70
2023/10/26 00:51:26;;;;;;;40.55;22.75;;;;;;;;;;6290730;28;20122;-70
2023/10/26 00:54:28;;;;;;;39.90;22.65;;;;;;;;;;6299491;28;20052;-70
2023/10/26 00:57:29;;;;;;;38.03;21.90;;;;;;;;;;6280229;28;20337;-71
2023/10/26 01:00:33;;;;;;;41.95;22.83;;;;;;;;;;6277737;28;20055;-70
2023/10/26 01:03:35;;;;;;;42.67;23.58;;;;;;;;;;6278105;28;20065;-70
2023/10/26 01:06:37;;;;;;;39.10;22.17;;;;;;;;;;6300528;28;20057;-72
2023/10/26 01:09:39;;;;;;;37.95;22.42;;;;;;;;;;6286537;28;20376;-70
2023/10/26 01:12:40;;;;;;;40.30;22.75;;;;;;;;;;6279002;28;20291;-69
2023/10/26 01:15:43;;;;;;;34.83;22.15;;;;;;;;;;6278708;28;20057;-71
2023/10/26 01:18:45;;;;;;;39.87;22.40;;;;;;;;;;6276982;28;20257;-71
2023/10/26 01:21:52;;;;;;;37.55;22.38;;;;;;;;;;6280541;28;20060;-70
2023/10/26 01:24:54;;;;;;;41.05;23.23;;;;;;;;;;6274905;28;20059;-70
2023/10/26 01:27:55;;;;;;;37.58;21.50;;;;;;;;;;6277884;28;20060;-71
2023/10/26 01:30:57;;;;;;;43.70;24.13;;;;;;;;;;6271145;28;20053;-70
2023/10/26 01:33:59;;;;;;;48.60;25.17;;;;;;;;;;6292717;28;20052;-70
2023/10/26 01:37:04;;;;;;;47.72;25.30;;;;;;;;;;6301150;28;20048;-69
2023/10/26 01:40:07;;;;;;;46.45;24.50;;;;;;;;;;6300074;28;20053;-71
2023/10/26 01:43:09;;;;;;;47.70;24.75;;;;;;;;;;6303541;28;20044;-70
2023/10/26 01:46:10;;;;;;;52.60;25.63;;;;;;;;;;6302603;28;20064;-69
2023/10/26 01:49:12;;;;;;;47.97;26.63;;;;;;;;;;6304925;28;20297;-70
2023/10/26 01:52:15;;;;;;;49.67;25.20;;;;;;;;;;6302068;28;20121;-69
2023/10/26 01:55:17;;;;;;;52.63;25.07;;;;;;;;;;6299187;28;20061;-69
2023/10/26 01:58:18;;;;;;;49.88;24.77;;;;;;;;;;6303647;28;20235;-68
2023/10/26 02:01:20;;;;;;;53.60;26.88;;;;;;;;;;6296021;28;20048;-69
2023/10/26 02:04:21;;;;;;;58.97;27.42;;;;;;;;;;6276490;28;20394;-68
2023/10/26 02:07:24;;;;;;;63.20;27.55;;;;;;;;;;6277663;28;20045;-68
2023/10/26 02:10:29;;;;;;;69.47;27.33;;;;;;;;;;6294937;28;20053;-68
2023/10/26 02:13:31;;;;;;;59.63;27.40;;;;;;;;;;6277744;28;20045;-68
2023/10/26 02:16:32;;;;;;;62.25;28.60;;;;;;;;;;6294755;28;20053;-68
2023/10/26 02:19:34;;;;;;;59.13;26.17;;;;;;;;;;6280256;28;20098;-68
2023/10/26 02:22:37;;;;;;;62.33;27.77;;;;;;;;;;6283395;28;20053;-68
2023/10/26 02:25:38;;;;;;;60.05;27.40;;;;;;;;;;6283413;28;20053;-70
2023/10/26 02:28:40;;;;;;;59.42;26.77;;;;;;;;;;6281158;28;20053;-68
2023/10/26 02:31:42;;;;;;;56.47;27.23;;;;;;;;;;6283093;28;20053;-69
2023/10/26 02:34:43;;;;;;;59.47;27.70;;;;;;;;;;6285031;28;20045;-68
2023/10/26 02:37:46;;;;;;;68.82;30.13;;;;;;;;;;6293917;28;20061;-69
2023/10/26 02:40:48;;;;;;;65.93;28.85;;;;;;;;;;6282348;28;20095;-68
2023/10/26 02:43:50;;;;;;;63.30;28.77;;;;;;;;;;6279187;28;20049;-69
2023/10/26 02:46:51;;;;;;;62.30;28.60;;;;;;;;;;6289408;28;20087;-69
2023/10/26 02:49:53;;;;;;;60.15;28.25;;;;;;;;;;6299031;28;20133;-69
2023/10/26 02:52:56;;;;;;;69.72;29.95;;;;;;;;;;6287798;28;20352;-69
2023/10/26 02:55:58;;;;;;;57.13;27.73;;;;;;;;;;6292740;28;20051;-69
2023/10/26 02:59:00;;;;;;;65.03;29.80;;;;;;;;;;6287658;28;20049;-69
2023/10/26 03:02:01;;;;;;;57.05;27.48;;;;;;;;;;6292022;28;20052;-69
2023/10/26 03:05:03;;;;;;;65.35;28.42;;;;;;;;;;6279841;28;20056;-69
2023/10/26 03:08:06;;;;;;;59.83;27.30;;;;;;;;;;6282893;28;20369;-69
2023/10/26 03:11:08;;;;;;;60.33;26.88;;;;;;;;;;6280189;28;20057;-70
2023/10/26 03:14:09;;;;;;;53.38;26.17;;;;;;;;;;6282472;28;20107;-69
2023/10/26 03:17:15;;;;;;;63.35;28.60;;;;;;;;;;6281305;28;20102;-69
2023/10/26 03:20:17;;;;;;;57.13;26.50;;;;;;;;;;6279435;28;20049;-69
2023/10/26 03:23:20;;;;;;;57.30;27.77;;;;;;;;;;6280781;28;20063;-69
2023/10/26 03:26:23;;;;;;;60.30;26.33;;;;;;;;;;6279498;28;20048;-68
2023/10/26 03:29:24;;;;;;;56.05;25.67;;;;;;;;;;6280850;28;20053;-68
2023/10/26 03:32:26;;;;;;;50.92;24.95;;;;;;;;;;6277094;28;20049;-69
2023/10/26 03:35:28;;;;;;;55.05;25.77;;;;;;;;;;6276947;28;20052;-68
2023/10/26 03:38:31;;;;;;;55.40;25.55;;;;;;;;;;6278842;28;20045;-69
2023/10/26 03:41:32;;;;;;;50.30;24.60;;;;;;;;;;6281663;28;20367;-69
2023/10/26 03:44:34;;;;;;;52.28;25.20;;;;;;;;;;6280269;28;20070;-69
2023/10/26 03:47:35;;;;;;;50.03;22.90;;;;;;;;;;6282410;28;20272;-70
2023/10/26 03:50:37;;;;;;;50.35;23.70;;;;;;;;;;6287493;28;20354;-68
2023/10/26 03:53:40;;;;;;;50.58;23.95;;;;;;;;;;6305534;28;20045;-68
2023/10/26 03:56:42;;;;;;;48.78;23.13;;;;;;;;;;6301258;28;20052;-68
2023/10/26 03:59:43;;;;;;;47.88;22.77;;;;;;;;;;6279889;28;20099;-69
2023/10/26 04:02:45;;;;;;;50.30;23.15;;;;;;;;;;6295045;28;20089;-69
2023/10/26 04:05:47;;;;;;;48.72;24.05;;;;;;;;;;6307120;28;20052;-69
2023/10/26 04:08:54;;;;;;;43.28;22.17;;;;;;;;;;6306119;28;20251;-68
2023/10/26 04:11:55;;;;;;;47.53;23.13;;;;;;;;;;6301821;28;20239;-69
2023/10/26 04:14:57;;;;;;;44.33;21.50;;;;;;;;;;6303118;28;20060;-71
2023/10/26 04:18:00;;;;;;;50.58;22.48;;;;;;;;;;6305770;28;20055;-69
2023/10/26 04:21:02;;;;;;;53.00;24.02;;;;;;;;;;6300800;28;20048;-72
2023/10/26 04:24:05;;;;;;;52.53;22.38;;;;;;;;;;6304167;28;20056;-68
2023/10/26 04:27:07;;;;;;;51.75;24.65;;;;;;;;;;6301182;28;20063;-68
2023/10/26 04:30:09;;;;;;;51.88;24.42;;;;;;;;;;6304099;28;20351;-68
2023/10/26 04:33:11;;;;;;;51.85;24.08;;;;;;;;;;6286638;28;20056;-67
2023/10/26 04:36:13;;;;;;;63.25;26.38;;;;;;;;;;6294016;28;20051;-67
2023/10/26 04:39:16;;;;;;;60.78;26.30;;;;;;;;;;6292382;28;20078;-67
2023/10/26 04:42:18;;;;;;;63.90;27.70;;;;;;;;;;6285559;28;20044;-68
2023/10/26 04:45:20;;;;;;;58.95;28.02;;;;;;;;;;6277323;28;20329;-68
2023/10/26 04:48:21;;;;;;;61.75;26.42;;;;;;;;;;6280396;28;20060;-68
2023/10/26 04:51:23;;;;;;;70.40;26.75;;;;;;;;;;6276981;28;20057;-69
2023/10/26 04:54:27;;;;;;;57.80;26.25;;;;;;;;;;6278251;28;20829;-68
2023/10/26 04:57:29;;;;;;;60.13;25.90;;;;;;;;;;6278044;28;20383;-68
2023/10/26 05:00:31;;;;;;;64.72;27.02;;;;;;;;;;6275582;28;20056;-68
2023/10/26 05:03:32;;;;;;;58.20;25.08;;;;;;;;;;6277799;28;20048;-68
2023/10/26 05:06:34;;;;;;;67.55;27.38;;;;;;;;;;6280481;28;21464;-71
2023/10/26 05:09:37;;;;;;;61.60;26.00;;;;;;;;;;6278422;28;20325;-71
2023/10/26 05:12:39;;;;;;;55.47;24.58;;;;;;;;;;6277468;28;20052;-70
2023/10/26 05:15:44;;;;;;;58.90;24.60;;;;;;;;;;6288682;28;20060;-70
2023/10/26 05:18:45;;;;;;;53.20;24.88;;;;;;;;;;6296505;28;20048;-70
2023/10/26 05:21:47;;;;;;;53.83;25.60;;;;;;;;;;6292988;28;20056;-70
2023/10/26 05:24:50;;;;;;;60.30;25.75;;;;;;;;;;6295490;28;20059;-70
2023/10/26 05:27:53;;;;;;;57.28;24.58;;;;;;;;;;6274181;28;20530;-70
2023/10/26 05:30:54;;;;;;;57.25;24.38;;;;;;;;;;6298036;28;20072;-71
2023/10/26 05:33:56;;;;;;;55.17;23.70;;;;;;;;;;6303704;28;20285;-71
2023/10/26 05:36:58;;;;;;;58.60;25.13;;;;;;;;;;6281637;28;20055;-70
2023/10/26 05:40:01;;;;;;;59.83;24.02;;;;;;;;;;6292809;28;20052;-70
2023/10/26 05:43:03;;;;;;;61.50;24.13;;;;;;;;;;6301942;28;20083;-70
2023/10/26 05:46:05;;;;;;;73.30;26.95;;;;;;;;;;6302013;28;20043;-70
2023/10/26 05:49:07;;;;;;;70.30;26.58;;;;;;;;;;6301680;28;20064;-73
2023/10/26 05:52:08;;;;;;;70.72;26.25;;;;;;;;;;6296892;28;20048;-70
2023/10/26 05:55:12;;;;;;;71.25;26.50;;;;;;;;;;6279590;28;20057;-72
2023/10/26 05:58:13;;;;;;;77.17;26.50;;;;;;;;;;6281616;28;20060;-72
2023/10/26 06:01:15;;;;;;;64.40;26.05;;;;;;;;;;6282819;28;20069;-70
2023/10/26 06:04:18;;;;;;;64.03;26.90;;;;;;;;;;6283272;28;20325;-70
2023/10/26 06:07:19;;;;;;;63.35;25.67;;;;;;;;;;6288340;28;20059;-70
2023/10/26 06:10:22;;;;;;;61.80;27.30;;;;;;;;;;6281780;28;20292;-70
2023/10/26 06:13:24;;;;;;;66.22;26.38;;;;;;;;;;6281216;28;20052;-70
2023/10/26 06:16:26;;;;;;;64.88;30.25;;;;;;;;;;6283454;28;20291;-69
2023/10/26 06:19:28;;;;;;;69.25;27.95;;;;;;;;;;6280725;28;20428;-72
2023/10/26 06:22:29;;;;;;;76.10;30.73;;;;;;;;;;6281932;28;20052;-69
2023/10/26 06:25:36;;;;;;;75.70;31.13;;;;;;;;;;6285763;28;20036;-69
2023/10/26 06:28:38;;;;;;;73.55;30.40;;;;;;;;;;6302241;28;20067;-69
2023/10/26 06:31:40;;;;;;;73.97;31.30;;;;;;;;;;6281802;28;20285;-69
2023/10/26 06:34:41;;;;;;;76.18;32.28;;;;;;;;;;6280026;28;20049;-69
2023/10/26 06:37:43;;;;;;;72.10;30.25;;;;;;;;;;6281226;28;20048;-69
2023/10/26 06:40:47;;;;;;;68.93;30.02;;;;;;;;;;6282399;28;20056;-69
2023/10/26 06:43:48;;;;;;;59.55;28.15;;;;;;;;;;6279659;28;20064;-70
2023/10/26 06:46:50;;;;;;;54.20;26.58;;;;;;;;;;6288974;28;20094;-72
2023/10/26 06:49:52;;;;;;;51.53;25.23;;;;;;;;;;6305447;28;20349;-70
2023/10/26 06:52:55;;;;;;;52.10;25.10;;;;;;;;;;6307734;28;20040;-70
2023/10/26 06:55:58;;;;;;;48.88;23.92;;;;;;;;;;6306385;28;20102;-69
2023/10/26 06:58:59;;;;;;;51.60;25.57;;;;;;;;;;6295903;28;20276;-70
2023/10/26 07:02:01;;;;;;;47.00;23.75;;;;;;;;;;6277756;28;20455;-70
2023/10/26 07:05:03;;;;;;;44.08;22.45;;;;;;;;;;6277432;28;20048;-70
2023/10/26 07:08:05;;;;;;;41.90;21.42;;;;;;;;;;6283238;28;20048;-70
2023/10/26 07:11:08;;;;;;;40.63;22.55;;;;;;;;;;6305456;28;20048;-70
2023/10/26 07:14:10;;;;;;;46.38;22.52;;;;;;;;;;6304933;28;20056;-70
2023/10/26 07:17:11;;;;;;;104.82;60.05;;;;;;;;;;6302360;28;20320;-68
2023/10/26 07:20:13;;;;;;;192.75;96.13;;;;;;;;;;6306470;28;20102;-68
2023/10/26 07:23:16;;;;;;;150.18;70.25;;;;;;;;;;6294235;28;20444;-68
2023/10/26 07:26:19;;;;;;;126.65;60.90;;;;;;;;;;6277659;28;20349;-70
2023/10/26 07:29:20;;;;;;;43.13;24.17;;;;;;;;;;6296750;28;20051;-72
2023/10/26 07:32:22;;;;;;;41.45;21.05;;;;;;;;;;6279074;28;20049;-70
2023/10/26 07:35:24;;;;;;;39.80;21.13;;;;;;;;;;6279947;28;20049;-70
2023/10/26 07:38:25;;;;;;;38.10;22.08;;;;;;;;;;6280506;28;20048;-69
2023/10/26 07:41:28;;;;;;;40.72;21.40;;;;;;;;;;6280651;28;20245;-69
2023/10/26 07:44:31;;;;;;;42.60;22.50;;;;;;;;;;6280481;28;20053;-69
2023/10/26 07:47:33;;;;;;;38.75;20.45;;;;;;;;;;6279777;28;20130;-69
2023/10/26 07:50:34;;;;;;;34.17;19.42;;;;;;;;;;6280454;28;20088;-69
2023/10/26 07:53:36;;;;;;;39.10;21.20;;;;;;;;;;6291607;28;20344;-69
2023/10/26 07:56:39;;;;;;;34.78;19.85;;;;;;;;;;6303210;28;20337;-69
2023/10/26 07:59:41;;;;;;;38.30;21.23;;;;;;;;;;6280450;28;20555;-70
2023/10/26 08:02:43;;;;;;;37.05;20.70;;;;;;;;;;6285186;28;20064;-69
2023/10/26 08:05:45;;;;;;;43.08;21.98;;;;;;;;;;6304787;28;20053;-69
2023/10/26 08:08:46;;;;;;;41.38;21.98;;;;;;;;;;6301189;28;20238;-69
2023/10/26 08:11:50;;;;;;;44.33;22.92;;;;;;;;;;6280200;28;20057;-70
2023/10/26 08:14:53;;;;;;;36.53;21.27;;;;;;;;;;6279896;28;20076;-69
2023/10/26 08:17:55;;;;;;;40.83;22.27;;;;;;;;;;6276863;28;20079;-70
2023/10/26 08:20:56;;;;;;;35.00;20.92;;;;;;;;;;6276791;28;20418;-68
2023/10/26 08:23:58;;;;;;;38.58;21.52;;;;;;;;;;6273471;28;20049;-69
2023/10/26 08:27:01;;;;;;;37.13;19.60;;;;;;;;;;6283395;28;20139;-69
2023/10/26 08:30:03;;;;;;;45.22;20.85;;;;;;;;;;6296811;28;20052;-68
2023/10/26 08:33:04;;;;;;;40.65;20.70;;;;;;;;;;6283378;28;20083;-71
2023/10/26 08:36:07;;;;;;;36.17;20.30;;;;;;;;;;6272448;28;20045;-71
2023/10/26 08:39:09;;;;;;;36.95;21.35;;;;;;;;;;6288821;28;20051;-71
2023/10/26 08:42:12;;;;;;;34.55;19.98;;;;;;;;;;6297708;28;20537;-74
2023/10/26 08:45:20;;;;;;;38.07;20.97;;;;;;;;;;6291856;28;20102;-72
2023/10/26 08:48:24;;;;;;;34.03;19.50;;;;;;;;;;6294462;28;20048;-73
2023/10/26 08:51:27;;;;;;;28.92;17.95;;;;;;;;;;6298354;28;20052;-71
2023/10/26 08:54:29;;;;;;;31.73;18.98;;;;;;;;;;6300110;28;20114;-71
2023/10/26 08:57:32;;;;;;;31.48;19.15;;;;;;;;;;6304006;28;20063;-71
2023/10/26 09:00:34;;;;;;;30.73;17.50;;;;;;;;;;6300784;28;20102;-73
2023/10/26 09:03:35;;;;;;;33.17;18.90;;;;;;;;;;6303980;28;20052;-73
2023/10/26 09:06:44;;;;;;;28.33;18.65;;;;;;;;;;6305201;28;20051;-73
2023/10/26 09:09:45;;;;;;;30.02;18.75;;;;;;;;;;6274894;28;20049;-73
2023/10/26 09:12:59;;;;;;;30.92;18.13;;;;;;;;;;6279042;28;20052;-73
2023/10/26 09:16:01;;;;;;;;;;;;;;;;;;6304431;28;20048;-73
2023/10/26 09:19:03;;;;;;;31.58;18.23;;;;;;;;;;6302022;28;19916;-74
2023/10/26 09:22:07;;;;;;;34.80;17.70;;;;;;;;;;6304054;28;20048;-71
2023/10/26 09:25:10;;;;;;;32.72;18.33;;;;;;;;;;6303438;28;20094;-72
2023/10/26 09:28:13;;;;;;;32.27;18.17;;;;;;;;;;6295859;28;20055;-73
2023/10/26 09:31:15;;;;;;;27.93;15.63;;;;;;;;;;6304859;28;20099;-73
2023/10/26 09:34:17;;;;;;;24.60;15.48;;;;;;;;;;6301245;28;20053;-72
2023/10/26 09:37:18;;;;;;;26.58;16.80;;;;;;;;;;6305861;28;20052;-71
2023/10/26 09:40:20;;;;;;;26.50;16.92;;;;;;;;;;6307880;28;20060;-72
2023/10/26 09:43:23;;;;;;;26.08;16.75;;;;;;;;;;6306079;28;20116;-72
2023/10/26 09:46:25;;;;;;;29.50;15.98;;;;;;;;;;6303522;28;20040;-72
2023/10/26 09:49:27;;;;;;;36.28;15.82;;;;;;;;;;6307950;28;20048;-72
2023/10/26 09:52:30;;;;;;;30.92;16.95;;;;;;;;;;6307787;28;20097;-73
2023/10/26 09:55:32;;;;;;;49.85;19.02;;;;;;;;;;6308415;28;20252;-72
2023/10/26 09:58:38;;;;;;;31.80;17.77;;;;;;;;;;6308731;28;20052;-72
2023/10/26 10:01:40;;;;;;;32.35;18.75;;;;;;;;;;6307657;28;20064;-72
2023/10/26 10:04:42;;;;;;;29.70;16.48;;;;;;;;;;6301746;28;20238;-72
2023/10/26 10:07:45;;;;;;;30.70;17.50;;;;;;;;;;6284180;28;20051;-71
2023/10/26 10:11:16;;;;;;;28.23;17.63;;;;;;;;;;6282550;28;20053;-72
2023/10/26 10:14:55;;;;;;;35.08;17.33;;;;;;;;;;6283280;28;20052;-73
2023/10/26 10:18:06;;;;;;;29.38;16.65;;;;;;;;;;6278495;28;20095;-72
2023/10/26 10:21:35;;;;;;;28.40;16.83;;;;;;;;;;6288316;28;20108;-72
2023/10/26 10:24:53;;;;;;;33.53;16.50;;;;;;;;;;6285737;28;20363;-73
2023/10/26 10:28:10;;;;;;;29.35;16.20;;;;;;;;;;6307465;28;20061;-72
2023/10/26 10:31:22;;;;;;;31.23;17.77;;;;;;;;;;6304681;28;20205;-71
2023/10/26 10:34:26;;;;;;;30.08;16.75;;;;;;;;;;6306312;28;20053;-72
2023/10/26 10:37:28;;;;;;;27.02;17.00;;;;;;;;;;6304145;28;20199;-71
2023/10/26 10:40:30;;;;;;;29.98;17.20;;;;;;;;;;6303842;28;20276;-73
2023/10/26 10:43:32;;;;;;;28.20;16.27;;;;;;;;;;6283423;28;20107;-71
2023/10/26 10:46:35;;;;;;;24.63;14.57;;;;;;;;;;6283831;28;20045;-73
2023/10/26 10:49:37;;;;;;;33.70;15.80;;;;;;;;;;6280838;28;20341;-72
2023/10/26 10:52:38;;;;;;;27.15;15.63;;;;;;;;;;6267655;28;20060;-75
2023/10/26 10:55:44;;;;;;;27.55;15.23;;;;;;;;;;6271351;28;20080;-73
2023/10/26 10:58:46;;;;;;;28.65;16.23;;;;;;;;;;6273190;28;20052;-72
2023/10/26 11:01:50;;;;;;;26.20;15.75;;;;;;;;;;6288498;28;20273;-73
2023/10/26 11:04:53;;;;;;;27.38;16.25;;;;;;;;;;6291770;28;20064;-75
2023/10/26 11:07:55;;;;;;;25.17;15.57;;;;;;;;;;6268956;28;20052;-73
2023/10/26 11:10:57;;;;;;;25.48;16.13;;;;;;;;;;6272161;28;20458;-75
2023/10/26 11:14:09;;;;;;;24.65;15.23;;;;;;;;;;6271003;28;20053;-73
2023/10/26 11:17:14;;;;;;;29.00;15.27;;;;;;;;;;6272163;28;20060;-72
2023/10/26 11:20:37;;;;;;;30.88;16.60;;;;;;;;;;6281067;28;20061;-72
2023/10/26 11:23:39;;;;;;;24.45;14.57;;;;;;;;;;6292258;28;20124;-72
2023/10/26 11:26:41;;;;;;;24.40;15.15;;;;;;;;;;6275442;28;20241;-72
2023/10/26 11:29:45;;;;;;;30.10;15.40;;;;;;;;;;6276473;28;20065;-72
2023/10/26 11:32:48;;;;;;;26.02;15.43;;;;;;;;;;6280096;28;20352;-72
2023/10/26 11:35:50;;;;;;;24.93;15.63;;;;;;;;;;6276694;28;20072;-71
2023/10/26 11:38:52;;;;;;;24.80;15.23;;;;;;;;;;6293976;28;20075;-70
2023/10/26 11:41:54;;;;;;;27.98;15.98;;;;;;;;;;6301442;28;20060;-71
2023/10/26 11:44:59;;;;;;;26.65;15.95;;;;;;;;;;6299291;28;20060;-72
2023/10/26 11:48:02;;;;;;;25.85;15.23;;;;;;;;;;6294025;28;20114;-71
2023/10/26 11:51:06;;;;;;;25.52;16.50;;;;;;;;;;6299794;28;20059;-72
2023/10/26 11:54:11;;;;;;;;;;;;;;;;;;6304026;28;20079;-72
2023/10/26 11:57:13;;;;;;;28.98;16.70;;;;;;;;;;6303114;28;20192;-74
2023/10/26 12:00:16;;;;;;;25.05;15.63;;;;;;;;;;6305603;28;20056;-72
2023/10/26 12:03:19;;;;;;;30.85;16.92;;;;;;;;;;6302309;28;20671;-74
2023/10/26 12:06:20;;;;;;;34.45;17.23;;;;;;;;;;6301233;28;20052;-72
2023/10/26 12:09:22;;;;;;;31.23;16.85;;;;;;;;;;6302269;28;20044;-74
2023/10/26 12:12:24;;;;;;;34.58;17.27;;;;;;;;;;6295800;28;20056;-74
2023/10/26 12:15:26;;;;;;;27.73;17.33;;;;;;;;;;6301763;28;20145;-74
2023/10/26 12:18:29;;;;;;;28.60;16.98;;;;;;;;;;6303489;28;20056;-72
2023/10/26 12:21:31;;;;;;;35.03;18.33;;;;;;;;;;6304262;28;20053;-73
2023/10/26 12:24:34;;;;;;;31.90;18.17;;;;;;;;;;6288975;28;20059;-74
2023/10/26 12:27:35;;;;;;;31.45;19.55;;;;;;;;;;6301544;28;20108;-73
2023/10/26 12:30:37;;;;;;;29.90;18.30;;;;;;;;;;6303456;28;20338;-73
2023/10/26 12:33:41;;;;;;;33.38;19.17;;;;;;;;;;6294834;28;20059;-73
2023/10/26 12:36:42;;;;;;;32.22;18.75;;;;;;;;;;6294114;28;20048;-75
2023/10/26 12:39:44;;;;;;;34.65;19.90;;;;;;;;;;6303576;28;20060;-72
2023/10/26 12:42:47;;;;;;;35.22;19.00;;;;;;;;;;6296378;28;20049;-75
2023/10/26 12:45:49;;;;;;;29.25;19.23;;;;;;;;;;6299704;28;20386;-74
2023/10/26 12:48:52;;;;;;;28.98;17.42;;;;;;;;;;6301128;28;20093;-74
2023/10/26 12:51:53;;;;;;;39.37;18.83;;;;;;;;;;6301472;28;20060;-76
2023/10/26 12:54:55;;;;;;;31.35;17.40;;;;;;;;;;6272644;28;20049;-72
2023/10/26 12:57:57;;;;;;;30.40;18.58;;;;;;;;;;6285218;28;20059;-74
2023/10/26 13:00:58;;;;;;;35.45;18.52;;;;;;;;;;6300398;28;20362;-72
2023/10/26 13:04:01;;;;;;;33.65;18.73;;;;;;;;;;6284194;28;20048;-73
2023/10/26 13:07:03;;;;;;;29.47;19.33;;;;;;;;;;6272333;28;20056;-73
2023/10/26 13:10:07;;;;;;;31.35;19.25;;;;;;;;;;6274060;28;20455;-72
2023/10/26 13:13:08;;;;;;;35.33;19.90;;;;;;;;;;6274789;28;20269;-72
2023/10/26 13:16:10;;;;;;;31.20;18.65;;;;;;;;;;6267359;28;20060;-72
2023/10/26 13:19:13;;;;;;;28.70;18.50;;;;;;;;;;6275771;28;20048;-75
2023/10/26 13:22:15;;;;;;;30.83;19.37;;;;;;;;;;6287381;28;20094;-73
2023/10/26 13:25:17;;;;;;;30.25;18.77;;;;;;;;;;6296959;28;20283;-74
2023/10/26 13:28:18;;;;;;;30.20;18.00;;;;;;;;;;6289906;28;20056;-75
2023/10/26 13:31:20;;;;;;;30.30;18.48;;;;;;;;;;6276737;28;20233;-74
2023/10/26 13:34:23;;;;;;;27.95;17.63;;;;;;;;;;6285444;28;20060;-74
2023/10/26 13:37:25;;;;;;;30.50;18.67;;;;;;;;;;6263081;28;20052;-72
2023/10/26 13:40:27;;;;;;;27.55;18.08;;;;;;;;;;6265511;28;20479;-72
2023/10/26 13:43:28;;;;;;;27.98;18.90;;;;;;;;;;6269647;28;20041;-72
2023/10/26 13:46:30;;;;;;;30.52;17.63;;;;;;;;;;6293935;28;20050;-72
2023/10/26 13:49:33;;;;;;;31.05;18.90;;;;;;;;;;6299920;28;20048;-73
2023/10/26 13:52:35;;;;;;;28.57;18.53;;;;;;;;;;6287573;28;20060;-72
2023/10/26 13:55:36;;;;;;;27.00;17.67;;;;;;;;;;6293960;28;20053;-73
2023/10/26 13:58:38;;;;;;;25.67;18.48;;;;;;;;;;6287932;28;20243;-73
2023/10/26 14:01:40;;;;;;;34.85;18.48;;;;;;;;;;6289927;28;20059;-72
2023/10/26 14:04:43;;;;;;;28.25;18.40;;;;;;;;;;6296277;28;20059;-73
2023/10/26 14:07:46;;;;;;;27.47;17.90;;;;;;;;;;6299312;28;20059;-72
2023/10/26 14:10:48;;;;;;;29.63;19.13;;;;;;;;;;6300701;28;20075;-73
2023/10/26 14:13:50;;;;;;;33.55;18.55;;;;;;;;;;6289755;28;20067;-74
2023/10/26 14:16:51;;;;;;;28.50;18.38;;;;;;;;;;6267945;28;20060;-75
2023/10/26 14:19:54;;;;;;;27.08;18.08;;;;;;;;;;6277361;28;20319;-74
2023/10/26 14:22:57;;;;;;;31.52;17.38;;;;;;;;;;6285777;28;20366;-74
2023/10/26 14:26:02;;;;;;;28.05;17.60;;;;;;;;;;6304689;28;20101;-73
2023/10/26 14:29:04;;;;;;;26.95;17.05;;;;;;;;;;6293984;28;20054;-77
2023/10/26 14:32:06;;;;;;;27.50;17.50;;;;;;;;;;6296932;28;20068;-74
2023/10/26 14:35:09;;;;;;;27.92;17.27;;;;;;;;;;6300840;28;20300;-74
2023/10/26 14:38:12;;;;;;;23.27;16.40;;;;;;;;;;6284444;28;20091;-74
2023/10/26 14:41:13;;;;;;;31.30;18.27;;;;;;;;;;6277769;28;20329;-74
2023/10/26 14:44:15;;;;;;;23.77;16.52;;;;;;;;;;6277768;28;20122;-73
2023/10/26 14:47:17;;;;;;;28.25;17.40;;;;;;;;;;6274602;28;20055;-73
2023/10/26 14:50:20;;;;;;;25.83;17.38;;;;;;;;;;6287497;28;20049;-74
2023/10/26 14:53:21;;;;;;;27.70;17.77;;;;;;;;;;6277645;28;20049;-73
2023/10/26 14:56:23;;;;;;;27.60;17.15;;;;;;;;;;6275060;28;20057;-75
2023/10/26 14:59:25;;;;;;;28.58;18.08;;;;;;;;;;6272194;28;20061;-72
2023/10/26 15:02:26;;;;;;;28.13;17.40;;;;;;;;;;6269801;28;20050;-75
2023/10/26 15:05:29;;;;;;;28.45;17.58;;;;;;;;;;6287883;28;20063;-74
2023/10/26 15:08:31;;;;;;;32.10;18.27;;;;;;;;;;6301856;28;20056;-74
2023/10/26 15:11:33;;;;;;;26.15;17.35;;;;;;;;;;6297581;28;20122;-72
2023/10/26 15:14:35;;;;;;;30.70;18.52;;;;;;;;;;6295949;28;20040;-75
2023/10/26 15:17:37;;;;;;;32.22;19.15;;;;;;;;;;6283779;28;20048;-75
2023/10/26 15:20:40;;;;;;;26.95;17.77;;;;;;;;;;6296635;28;20060;-74
2023/10/26 15:23:42;;;;;;;26.52;17.73;;;;;;;;;;6278820;28;20067;-75
2023/10/26 15:26:44;;;;;;;25.60;17.27;;;;;;;;;;6277231;28;20061;-74
2023/10/26 15:29:47;;;;;;;25.48;16.45;;;;;;;;;;6276686;28;20040;-74
2023/10/26 15:32:48;;;;;;;26.25;17.00;;;;;;;;;;6275291;28;20102;-75
2023/10/26 15:35:51;;;;;;;29.40;17.60;;;;;;;;;;6297041;28;20049;-77
2023/10/26 15:38:56;;;;;;;27.17;16.13;;;;;;;;;;6274441;28;20052;-74
2023/10/26 15:41:57;;;;;;;26.85;16.25;;;;;;;;;;6287916;28;20470;-74
2023/10/26 15:44:59;;;;;;;30.38;17.45;;;;;;;;;;6301445;28;20059;-77
2023/10/26 15:48:01;;;;;;;28.77;16.48;;;;;;;;;;6286237;28;20110;-75
2023/10/26 15:51:05;;;;;;;29.08;17.35;;;;;;;;;;6276695;28;20261;-73
2023/10/26 15:54:07;;;;;;;27.15;17.13;;;;;;;;;;6280262;28;20100;-73
2023/10/26 15:57:10;;;;;;;28.17;17.65;;;;;;;;;;6271434;28;20448;-73
2023/10/26 16:00:13;;;;;;;29.88;17.77;;;;;;;;;;6288301;28;20056;-83
2023/10/26 16:03:14;;;;;;;26.13;16.17;;;;;;;;;;6300470;28;20045;-72
2023/10/26 16:06:18;;;;;;;29.05;17.02;;;;;;;;;;6299796;28;20500;-73
2023/10/26 16:09:20;;;;;;;26.75;16.48;;;;;;;;;;6303243;28;20062;-76
2023/10/26 16:12:22;;;;;;;25.95;16.60;;;;;;;;;;6301539;28;20119;-72
2023/10/26 16:15:24;;;;;;;28.77;17.58;;;;;;;;;;6299226;28;20044;-73
2023/10/26 16:18:26;;;;;;;26.65;16.30;;;;;;;;;;6286920;28;20053;-74
2023/10/26 16:21:29;;;;;;;28.00;18.25;;;;;;;;;;6281289;28;20064;-73
2023/10/26 16:24:31;;;;;;;29.27;17.77;;;;;;;;;;6279991;28;20110;-73
2023/10/26 16:27:33;;;;;;;25.92;17.02;;;;;;;;;;6279167;28;20446;-73
2023/10/26 16:30:34;;;;;;;28.77;18.13;;;;;;;;;;6282751;28;20053;-72
2023/10/26 16:33:37;;;;;;;31.63;17.38;;;;;;;;;;6260326;28;20355;-74
2023/10/26 16:36:40;;;;;;;28.60;18.67;;;;;;;;;;6273342;28;20466;-77
2023/10/26 16:39:42;;;;;;;31.35;18.80;;;;;;;;;;6289437;28;20060;-78
2023/10/26 16:45:56;;;;;;;32.85;19.27;;;;;;;;;;6270632;28;20083;-83
2023/10/26 16:48:57;;;;;;;31.67;19.15;;;;;;;;;;6292615;28;20056;-81
2023/10/26 16:52:00;;;;;;;30.92;19.08;;;;;;;;;;6284641;28;20569;-82
2023/10/26 16:55:02;;;;;;;35.70;20.53;;;;;;;;;;6296538;28;20052;-81
2023/10/26 16:58:06;;;;;;;33.05;19.05;;;;;;;;;;6288147;28;20064;-82
2023/10/26 17:01:11;;;;;;;34.65;20.65;;;;;;;;;;6289969;28;20120;-80
2023/10/26 17:04:12;;;;;;;33.75;20.80;;;;;;;;;;6290602;28;20116;-79
2023/10/26 17:07:15;;;;;;;36.95;21.63;;;;;;;;;;6290525;28;20060;-79
2023/10/26 17:10:17;;;;;;;42.17;23.63;;;;;;;;;;6289621;28;20334;-80
2023/10/26 17:13:20;;;;;;;40.47;23.83;;;;;;;;;;6289102;28;20053;-82
2023/10/26 17:16:22;;;;;;;41.63;23.83;;;;;;;;;;6285629;28;20064;-80
2023/10/26 17:19:24;;;;;;;38.47;22.35;;;;;;;;;;6287347;28;21497;-80
2023/10/26 17:22:27;;;;;;;46.63;25.02;;;;;;;;;;6289576;28;20087;-81
2023/10/26 17:25:29;;;;;;;47.83;25.17;;;;;;;;;;6290757;28;20044;-81
2023/10/26 17:28:30;;;;;;;47.10;25.30;;;;;;;;;;6290649;28;20686;-82
2023/10/26 17:59:04;;;;;;;52.22;27.13;;;;;;;;;;6139086;28;20051;-84
2023/10/26 18:02:06;;;;;;;49.58;27.73;;;;;;;;;;6157537;28;20327;-86
2023/10/26 18:05:08;;;;;;;56.70;28.50;;;;;;;;;;6154422;28;20055;-84
2023/10/26 18:08:10;;;;;;;54.55;28.35;;;;;;;;;;6157124;28;20055;-82
2023/10/26 18:11:11;;;;;;;60.60;28.67;;;;;;;;;;6155990;28;20576;-86
2023/10/26 18:14:14;;;;;;;52.70;28.85;;;;;;;;;;6160973;28;20322;-85
2023/10/26 18:17:16;;;;;;;60.47;28.93;;;;;;;;;;6161972;28;20058;-86